createdAt,value
2022-11-17T00:03:04.460Z,96284.72
2022-11-17T00:07:08.074Z,96272.34
2022-11-17T00:11:13.124Z,96261.13
2022-11-17T00:15:16.793Z,96252.34
2022-11-17T00:19:37.602Z,96267.75
2022-11-17T00:23:50.713Z,96257.53
2022-11-17T00:27:55.470Z,96261.94
2022-11-17T00:36:08.487Z,96258.31
2022-11-17T00:40:13.250Z,96242.88
2022-11-17T00:44:18.808Z,96232.13
2022-11-17T00:48:21.766Z,96219.13
2022-11-17T00:52:25.328Z,96221.50
2022-11-17T00:56:29.522Z,96217.75
2022-11-17T01:00:34.169Z,96214.78
2022-11-17T01:04:37.836Z,96217.38
2022-11-17T01:08:41.299Z,96203.19
2022-11-17T01:12:44.362Z,96209.22
2022-11-17T01:16:49.786Z,96199.59
2022-11-17T01:20:53.112Z,96198.00
2022-11-17T01:24:56.140Z,96217.59
2022-11-17T01:29:01.013Z,96206.38
2022-11-17T01:33:06.154Z,96208.81
2022-11-17T01:37:21.598Z,96210.81
2022-11-17T01:41:26.965Z,96210.81
2022-11-17T01:45:30.518Z,96204.00
2022-11-17T01:49:35.288Z,96200.41
2022-11-17T01:53:39.658Z,96191.97
2022-11-17T01:57:49.011Z,96189.19
2022-11-17T02:01:57.203Z,96189.19
2022-11-17T02:06:07.842Z,96182.41
2022-11-17T02:10:11.001Z,96186.97
2022-11-17T02:14:14.887Z,96177.56
2022-11-17T02:18:18.811Z,96173.00
2022-11-17T02:22:55.550Z,96167.59
2022-11-17T02:27:37.708Z,96177.00
2022-11-17T02:31:47.787Z,96171.19
2022-11-17T02:35:57.014Z,96167.34
2022-11-17T02:40:05.574Z,96177.38
2022-11-17T02:44:14.371Z,96178.38
2022-11-17T02:48:24.225Z,96173.38
2022-11-17T02:52:29.372Z,96159.53
2022-11-17T02:56:32.364Z,96166.50
2022-11-17T03:00:45.586Z,96163.28
2022-11-17T03:05:02.020Z,96160.09
2022-11-17T03:09:21.710Z,96156.88
2022-11-17T03:13:32.751Z,96155.44
2022-11-17T03:17:48.186Z,96157.59
2022-11-17T03:21:58.242Z,96164.81
2022-11-17T03:26:04.263Z,96160.59
2022-11-17T03:30:09.706Z,96170.19
2022-11-17T03:34:19.127Z,96149.97
2022-11-17T03:38:28.616Z,96149.81
2022-11-17T03:42:35.957Z,96140.22
2022-11-17T03:51:10.636Z,96138.44
2022-11-17T03:55:15.264Z,96145.81
2022-11-17T03:59:24.193Z,96144.41
2022-11-17T04:03:31.811Z,96141.91
2022-11-17T04:07:40.683Z,96128.06
2022-11-17T04:12:00.996Z,96121.06
2022-11-17T04:16:04.597Z,96124.38
2022-11-17T04:20:09.255Z,96129.31
2022-11-17T04:24:14.456Z,96127.47
2022-11-17T04:28:34.855Z,96134.22
2022-11-17T04:32:38.760Z,96128.78
2022-11-17T04:36:46.514Z,96123.78
2022-11-17T04:41:05.377Z,96110.50
2022-11-17T04:45:09.575Z,96113.72
2022-11-17T04:49:13.595Z,96108.91
2022-11-17T04:53:16.584Z,96101.31
2022-11-17T04:57:21.420Z,96100.50
2022-11-17T05:01:27.819Z,96079.31
2022-11-17T05:05:31.420Z,96086.09
2022-11-17T05:09:34.578Z,96080.09
2022-11-17T05:13:38.603Z,96078.31
2022-11-17T05:17:41.805Z,96083.69
2022-11-17T05:21:45.608Z,96085.69
2022-11-17T05:25:48.948Z,96088.66
2022-11-17T05:29:53.711Z,96085.41
2022-11-17T05:33:57.101Z,96072.22
2022-11-17T05:38:00.609Z,96077.59
2022-11-17T05:42:03.705Z,96073.53
2022-11-17T05:46:08.742Z,96076.31
2022-11-17T05:50:11.994Z,96063.53
2022-11-17T05:54:15.691Z,96062.75
2022-11-17T05:58:23.828Z,96052.38
2022-11-17T06:02:33.579Z,96061.16
2022-11-17T06:06:38.885Z,96054.34
2022-11-17T06:10:42.602Z,96043.16
2022-11-17T06:14:46.639Z,96054.59
2022-11-17T06:18:55.195Z,96063.78
2022-11-17T06:23:02.195Z,96060.84
2022-11-17T06:27:05.968Z,96053.66
2022-11-17T06:31:09.635Z,96045.66
2022-11-17T06:35:16.717Z,96048.09
2022-11-17T06:39:20.180Z,96044.53
2022-11-17T06:43:23.634Z,96055.50
2022-11-17T06:47:27.186Z,96048.34
2022-11-17T06:51:31.677Z,96051.34
2022-11-17T06:55:35.890Z,96027.81
2022-11-17T06:59:39.402Z,96025.66
2022-11-17T07:03:44.034Z,96033.88
2022-11-17T07:07:49.023Z,96056.50
2022-11-17T07:11:52.612Z,96065.50
2022-11-17T07:15:55.693Z,96055.56
2022-11-17T07:19:59.247Z,96052.41
2022-11-17T07:24:03.733Z,96058.00
2022-11-17T07:28:06.997Z,96063.44
2022-11-17T07:32:14.743Z,96052.81
2022-11-17T07:36:18.149Z,96039.25
2022-11-17T07:40:23.063Z,96046.03
2022-11-17T07:44:26.463Z,96035.25
2022-11-17T07:48:29.949Z,96027.09
2022-11-17T07:52:37.248Z,96013.53
2022-11-17T07:56:45.851Z,96028.19
2022-11-17T08:00:49.566Z,96049.00
2022-11-17T08:04:53.333Z,96038.44
2022-11-17T08:08:57.176Z,96041.91
2022-11-17T08:13:02.616Z,96041.13
2022-11-17T08:17:06.161Z,96049.53
2022-11-17T08:21:10.673Z,96050.94
2022-11-17T08:25:14.412Z,96057.56
2022-11-17T08:29:18.859Z,96061.41
2022-11-17T08:33:22.072Z,96062.81
2022-11-17T08:37:25.173Z,96081.22
2022-11-17T08:41:28.729Z,96078.41
2022-11-17T08:45:33.538Z,96065.84
2022-11-17T08:49:37.122Z,96072.66
2022-11-17T08:53:41.573Z,96066.88
2022-11-17T08:57:45.521Z,96068.09
2022-11-17T09:01:49.930Z,96077.72
2022-11-17T09:05:53.675Z,96094.16
2022-11-17T09:10:00.464Z,96102.22
2022-11-17T09:14:04.170Z,96101.06
2022-11-17T09:18:08.612Z,96128.38
2022-11-17T09:22:12.152Z,96137.25
2022-11-17T09:26:17.202Z,96156.53
2022-11-17T09:30:22.786Z,96152.91
2022-11-17T09:34:27.706Z,96161.16
2022-11-17T09:38:31.311Z,96191.19
2022-11-17T09:42:40.511Z,96191.41
2022-11-17T09:46:56.880Z,96171.97
2022-11-17T09:51:03.286Z,96178.13
2022-11-17T09:55:20.432Z,96166.75
2022-11-17T09:59:27.268Z,96170.75
2022-11-17T10:03:37.555Z,96184.56
2022-11-17T10:07:50.963Z,96207.03
2022-11-17T10:11:56.070Z,96209.19
2022-11-17T10:16:04.141Z,96191.97
2022-11-17T10:20:16.992Z,96174.38
2022-11-17T10:24:37.735Z,96150.13
2022-11-17T10:28:41.322Z,96148.53
2022-11-17T10:32:51.340Z,96157.00
2022-11-17T10:36:55.031Z,96160.22
2022-11-17T10:41:03.168Z,96172.44
2022-11-17T10:45:08.122Z,96192.13
2022-11-17T10:49:26.128Z,96226.41
2022-11-17T10:53:44.931Z,96221.63
2022-11-17T10:57:53.282Z,96212.78
2022-11-17T11:01:56.759Z,96204.34
2022-11-17T11:06:22.765Z,96192.13
2022-11-17T11:10:33.390Z,96184.28
2022-11-17T11:14:42.092Z,96186.72
2022-11-17T11:18:46.351Z,96179.31
2022-11-17T11:22:58.614Z,96156.22
2022-11-17T11:27:11.033Z,96153.19
2022-11-17T11:31:29.734Z,96147.13
2022-11-17T11:35:57.012Z,96141.28
2022-11-17T11:40:11.306Z,96129.88
2022-11-17T11:44:32.775Z,96119.44
2022-11-17T11:48:41.786Z,96104.38
2022-11-17T11:52:50.247Z,96121.22
2022-11-17T11:56:55.394Z,96099.16
2022-11-17T12:01:06.369Z,96091.09
2022-11-17T12:05:20.532Z,96077.22
2022-11-17T12:09:48.315Z,96088.84
2022-11-17T12:13:54.464Z,96081.78
2022-11-17T12:18:01.652Z,96095.38
2022-11-17T12:22:06.904Z,96106.22
2022-11-17T12:26:23.593Z,96100.59
2022-11-17T12:30:54.624Z,96085.75
2022-11-17T12:35:26.576Z,96069.06
2022-11-17T12:40:10.284Z,96072.09
2022-11-17T12:44:50.374Z,96076.47
2022-11-17T12:49:06.694Z,96091.06
2022-11-17T12:53:25.755Z,96092.34
2022-11-17T12:57:33.757Z,96088.63
2022-11-17T13:01:46.139Z,96083.44
2022-11-17T13:06:33.655Z,96084.16
2022-11-17T13:10:33.365Z,96094.31
2022-11-17T13:14:38.979Z,96094.94
2022-11-17T13:18:44.790Z,96107.03
2022-11-17T13:23:00.602Z,96109.31
2022-11-17T13:27:07.490Z,96110.88
2022-11-17T13:31:15.089Z,96099.72
2022-11-17T13:35:23.577Z,96109.50
2022-11-17T13:39:28.692Z,96131.53
2022-11-17T13:43:40.450Z,96114.88
2022-11-17T13:47:47.453Z,96129.19
2022-11-17T13:51:52.472Z,96137.25
2022-11-17T13:55:56.308Z,96159.78
2022-11-17T14:00:03.508Z,96164.59
2022-11-17T14:04:27.235Z,96177.47
2022-11-17T14:08:34.248Z,96173.06
2022-11-17T14:12:38.905Z,96182.72
2022-11-17T14:16:43.855Z,96175.06
2022-11-17T14:20:47.134Z,96176.69
2022-11-17T14:24:52.363Z,96150.81
2022-11-17T14:29:02.114Z,96155.03
2022-11-17T14:33:12.119Z,96166.66
2022-11-17T14:37:16.905Z,96175.66
2022-11-17T14:41:22.668Z,96176.47
2022-11-17T14:45:25.764Z,96185.28
2022-11-17T14:49:29.446Z,96170.84
2022-11-17T14:53:32.525Z,96195.53
2022-11-17T14:57:38.704Z,96162.25
2022-11-17T15:01:43.005Z,96160.22
2022-11-17T15:05:47.260Z,96168.25
2022-11-17T15:09:50.702Z,96194.88
2022-11-17T15:13:55.444Z,96161.00
2022-11-17T15:17:58.536Z,96181.03
2022-11-17T15:22:01.696Z,96170.94
2022-11-17T15:26:06.741Z,96177.31
2022-11-17T15:30:12.546Z,96170.53
2022-11-17T15:34:19.987Z,96157.88
2022-11-17T15:38:23.445Z,96140.81
2022-11-17T15:42:27.129Z,96147.22
2022-11-17T15:46:31.573Z,96133.41
2022-11-17T15:50:35.176Z,96119.78
2022-11-17T15:54:38.367Z,96101.56
2022-11-17T15:58:42.847Z,96125.94
2022-11-17T16:02:47.991Z,96130.75
2022-11-17T16:06:51.268Z,96132.75
2022-11-17T16:10:54.395Z,96126.13
2022-11-17T16:14:57.616Z,96115.91
2022-11-17T16:19:02.805Z,96123.09
2022-11-17T16:23:06.335Z,96129.50
2022-11-17T16:27:13.230Z,96132.50
2022-11-17T16:31:18.348Z,96136.28
2022-11-17T16:35:22.882Z,96129.50
2022-11-17T16:39:26.413Z,96118.84
2022-11-17T16:43:29.594Z,96122.84
2022-11-17T16:47:35.248Z,96100.19
2022-11-17T16:51:39.995Z,96124.78
2022-11-17T16:55:43.506Z,96125.31
2022-11-17T16:59:47.019Z,96119.06
2022-11-17T17:03:50.312Z,96132.75
2022-11-17T17:07:55.284Z,96124.66
2022-11-17T17:11:58.925Z,96134.59
2022-11-17T17:16:04.401Z,96133.75
2022-11-17T17:20:09.457Z,96135.50
2022-11-17T17:24:15.379Z,96137.22
2022-11-17T17:28:18.690Z,96131.19
2022-11-17T17:32:22.209Z,96131.13
2022-11-17T17:36:26.364Z,96128.28
2022-11-17T17:40:31.987Z,96125.66
2022-11-17T17:44:35.664Z,96127.34
2022-11-17T17:48:40.516Z,96119.66
2022-11-17T17:52:44.188Z,96112.00
2022-11-17T17:56:50.016Z,96110.16
2022-11-17T18:00:53.986Z,96115.25
2022-11-17T18:04:58.172Z,96117.63
2022-11-17T18:09:01.445Z,96123.34
2022-11-17T18:13:10.628Z,96116.56
2022-11-17T18:17:14.667Z,96112.72
2022-11-17T18:21:20.592Z,96117.47
2022-11-17T18:25:24.188Z,96121.59
2022-11-17T18:29:29.291Z,96131.72
2022-11-17T18:33:34.944Z,96133.41
2022-11-17T18:37:38.574Z,96110.56
2022-11-17T18:41:42.221Z,96107.09
2022-11-17T18:45:47.949Z,96118.34
2022-11-17T18:49:51.554Z,96120.88
2022-11-17T18:54:00.602Z,96112.22
2022-11-17T18:58:14.426Z,96114.16
2022-11-17T19:02:20.231Z,96106.38
2022-11-17T19:06:28.331Z,96099.25
2022-11-17T19:10:32.705Z,96094.66
2022-11-17T19:14:36.935Z,96097.63
2022-11-17T19:18:42.486Z,96097.00
2022-11-17T19:22:46.399Z,96104.50
2022-11-17T19:26:51.241Z,96103.25
2022-11-17T19:30:54.810Z,96100.75
2022-11-17T19:35:11.832Z,96099.84
2022-11-17T19:39:21.561Z,96097.72
2022-11-17T19:43:25.364Z,96102.16
2022-11-17T19:47:29.573Z,96110.03
2022-11-17T19:51:37.418Z,96108.94
2022-11-17T19:55:40.778Z,96104.47
2022-11-17T19:59:44.569Z,96098.00
2022-11-17T20:03:49.158Z,96102.75
2022-11-17T20:07:53.811Z,96101.16
2022-11-17T20:11:57.832Z,96104.34
2022-11-17T20:16:06.179Z,96112.25
2022-11-17T20:20:13.787Z,96107.78
2022-11-17T20:24:18.849Z,96092.00
2022-11-17T20:28:22.314Z,96096.47
2022-11-17T20:32:25.645Z,96093.34
2022-11-17T20:36:33.608Z,96090.59
2022-11-17T20:40:41.172Z,96092.19
2022-11-17T20:44:45.337Z,96079.06
2022-11-17T20:48:50.138Z,96077.09
2022-11-17T20:52:53.964Z,96076.88
2022-11-17T20:56:58.840Z,96076.88
2022-11-17T21:01:10.168Z,96078.22
2022-11-17T21:05:13.451Z,96077.00
2022-11-17T21:09:17.322Z,96061.03
2022-11-17T21:13:25.031Z,96054.38
2022-11-17T21:17:45.290Z,96068.03
2022-11-17T21:21:50.734Z,96051.44
2022-11-17T21:25:53.894Z,96063.94
2022-11-17T21:29:59.578Z,96070.91
2022-11-17T21:34:04.410Z,96060.28
2022-11-17T21:38:11.454Z,96073.59
2022-11-17T21:42:18.225Z,96081.53
2022-11-17T21:46:26.843Z,96078.13
2022-11-17T21:50:30.247Z,96077.31
2022-11-17T21:54:33.962Z,96057.06
2022-11-17T21:58:37.796Z,96046.00
2022-11-17T22:02:42.927Z,96056.91
2022-11-17T22:06:46.649Z,96051.44
2022-11-17T22:10:50.250Z,96056.53
2022-11-17T22:14:53.551Z,96047.84
2022-11-17T22:18:58.497Z,96052.16
2022-11-17T22:23:01.764Z,96050.63
2022-11-17T22:27:07.218Z,96041.50
2022-11-17T22:31:11.227Z,96036.41
2022-11-17T22:35:16.651Z,96042.47
2022-11-17T22:39:20.023Z,96040.16
2022-11-17T22:43:23.750Z,96048.16
2022-11-17T22:47:27.068Z,96063.78
2022-11-17T22:51:49.812Z,96050.91
2022-11-17T22:55:53.090Z,96061.53
2022-11-17T22:59:56.833Z,96072.16
2022-11-17T23:04:00.237Z,96071.00
2022-11-17T23:08:09.567Z,96082.41
2022-11-17T23:12:13.163Z,96087.25
2022-11-17T23:16:16.192Z,96086.88
2022-11-17T23:20:21.134Z,96083.91
2022-11-17T23:24:25.695Z,96084.56
2022-11-17T23:28:28.867Z,96074.97
2022-11-17T23:32:32.216Z,96079.97
2022-11-17T23:36:35.913Z,96083.38
2022-11-17T23:40:40.521Z,96090.16
2022-11-17T23:44:44.485Z,96094.56
2022-11-17T23:48:47.873Z,96098.94
2022-11-17T23:52:51.515Z,96103.31
2022-11-17T23:56:56.750Z,96097.94
